createdAt,value
2023-02-03T00:00:10.558Z,4.60
2023-02-03T00:02:38.855Z,4.63
2023-02-03T00:05:08.151Z,4.80
2023-02-03T00:07:36.433Z,5.47
2023-02-03T00:10:04.844Z,4.87
2023-02-03T00:12:33.113Z,4.60
2023-02-03T00:15:01.333Z,4.17
2023-02-03T00:17:30.975Z,4.17
2023-02-03T00:19:59.189Z,4.10
2023-02-03T00:22:27.419Z,4.97
2023-02-03T00:24:55.642Z,4.67
2023-02-03T00:27:24.039Z,3.90
2023-02-03T00:29:52.331Z,4.40
2023-02-03T00:32:20.740Z,3.87
2023-02-03T00:34:50.450Z,3.97
2023-02-03T00:37:18.699Z,4.30
2023-02-03T00:39:46.971Z,3.47
2023-02-03T00:42:15.254Z,4.50
2023-02-03T00:44:43.471Z,3.80
2023-02-03T00:47:11.760Z,4.40
2023-02-03T00:49:39.994Z,4.50
2023-02-03T00:52:09.635Z,4.50
2023-02-03T00:54:37.879Z,4.13
2023-02-03T00:57:06.092Z,4.33
2023-02-03T00:59:34.324Z,4.50
2023-02-03T01:02:02.576Z,4.03
2023-02-03T01:04:30.863Z,4.10
2023-02-03T01:06:59.961Z,4.50
2023-02-03T01:09:29.562Z,3.67
2023-02-03T01:11:57.870Z,3.10
2023-02-03T01:14:26.104Z,4.00
2023-02-03T01:16:54.442Z,3.43
2023-02-03T01:19:22.745Z,4.07
2023-02-03T01:21:51.060Z,3.87
2023-02-03T01:24:19.268Z,4.00
2023-02-03T01:26:48.950Z,3.77
2023-02-03T01:29:17.174Z,3.93
2023-02-03T01:31:45.613Z,3.90
2023-02-03T01:34:16.416Z,4.33
2023-02-03T01:36:46.055Z,4.23
2023-02-03T01:39:14.302Z,4.87
2023-02-03T01:41:42.674Z,4.27
2023-02-03T01:44:47.693Z,4.27
2023-02-03T01:47:19.721Z,5.07
2023-02-03T01:49:50.288Z,4.93
2023-02-03T01:52:18.535Z,4.67
2023-02-03T01:54:46.996Z,4.90
2023-02-03T01:57:17.189Z,4.73
2023-02-03T01:59:46.819Z,4.23
2023-02-03T02:02:15.132Z,4.60
2023-02-03T02:04:49.459Z,5.37
2023-02-03T02:07:17.862Z,5.07
2023-02-03T02:09:46.153Z,4.67
2023-02-03T02:12:14.540Z,4.70
2023-02-03T02:14:42.783Z,4.97
2023-02-03T02:17:17.485Z,4.50
2023-02-03T02:20:19.176Z,5.00
2023-02-03T02:22:57.034Z,5.63
2023-02-03T02:25:49.887Z,5.80
2023-02-03T02:28:37.182Z,5.33
2023-02-03T02:34:09.780Z,5.20
2023-02-03T02:36:40.421Z,5.47
2023-02-03T02:39:11.003Z,4.83
2023-02-03T02:41:42.342Z,4.83
2023-02-03T02:44:13.513Z,4.43
2023-02-03T02:46:43.852Z,5.10
2023-02-03T02:49:15.957Z,5.37
2023-02-03T02:51:45.309Z,4.80
2023-02-03T02:54:16.490Z,5.47
2023-02-03T02:56:44.733Z,5.57
2023-02-03T02:59:12.956Z,5.63
2023-02-03T03:01:41.650Z,6.10
2023-02-03T03:04:10.611Z,5.90
2023-02-03T03:06:42.572Z,6.03
2023-02-03T03:09:11.807Z,5.63
2023-02-03T03:11:44.290Z,5.70
2023-02-03T03:14:12.663Z,5.43
2023-02-03T03:16:41.510Z,5.60
2023-02-03T03:19:10.862Z,5.70
2023-02-03T03:21:43.755Z,5.50
2023-02-03T03:24:12.491Z,6.00
2023-02-03T03:26:43.068Z,5.67
2023-02-03T03:29:13.317Z,5.00
2023-02-03T03:31:41.786Z,5.83
2023-02-03T03:34:10.312Z,5.00
2023-02-03T03:36:43.657Z,5.83
2023-02-03T03:39:14.870Z,5.67
2023-02-03T03:41:44.915Z,6.87
2023-02-03T03:44:14.601Z,6.80
2023-02-03T03:46:46.049Z,7.17
2023-02-03T03:49:14.390Z,7.13
2023-02-03T03:51:46.107Z,6.40
2023-02-03T03:54:15.766Z,5.63
2023-02-03T03:56:47.637Z,5.50
2023-02-03T03:59:16.023Z,5.27
2023-02-03T04:01:44.452Z,5.03
2023-02-03T04:04:12.744Z,4.53
2023-02-03T04:06:40.988Z,5.80
2023-02-03T04:09:10.603Z,5.27
2023-02-03T04:11:56.567Z,5.87
2023-02-03T04:14:24.794Z,6.20
2023-02-03T04:16:53.051Z,5.60
2023-02-03T04:19:21.291Z,5.80
2023-02-03T04:21:49.541Z,7.30
2023-02-03T04:24:19.163Z,7.57
2023-02-03T04:26:47.412Z,8.30
2023-02-03T04:29:15.664Z,7.73
2023-02-03T04:31:43.988Z,7.60
2023-02-03T04:34:12.428Z,6.93
2023-02-03T04:36:40.690Z,6.60
2023-02-03T04:39:08.890Z,6.33
2023-02-03T04:41:38.574Z,6.67
2023-02-03T04:44:06.867Z,6.47
2023-02-03T04:46:35.540Z,6.43
2023-02-03T04:49:03.862Z,7.10
2023-02-03T04:51:32.100Z,6.47
2023-02-03T04:54:00.327Z,6.77
2023-02-03T04:56:28.622Z,7.20
2023-02-03T04:58:58.257Z,7.83
2023-02-03T05:01:26.677Z,9.10
2023-02-03T05:03:55.012Z,9.73
2023-02-03T05:06:25.398Z,9.83
2023-02-03T05:08:53.714Z,9.90
2023-02-03T05:11:21.969Z,9.97
2023-02-03T05:13:50.190Z,11.77
2023-02-03T05:16:19.926Z,11.27
2023-02-03T05:18:48.219Z,13.00
2023-02-03T05:21:16.556Z,13.33
2023-02-03T05:23:44.801Z,11.50
2023-02-03T05:26:13.052Z,11.00
2023-02-03T05:28:41.268Z,12.90
2023-02-03T05:31:09.641Z,12.67
2023-02-03T05:33:39.328Z,12.77
2023-02-03T05:36:08.304Z,13.57
2023-02-03T05:38:36.640Z,13.33
2023-02-03T05:41:22.562Z,12.77
2023-02-03T05:43:50.887Z,12.27
2023-02-03T05:46:19.845Z,11.97
2023-02-03T05:48:49.451Z,12.43
2023-02-03T05:51:17.710Z,13.00
2023-02-03T05:53:45.960Z,12.93
2023-02-03T05:56:14.242Z,12.00
2023-02-03T05:58:42.453Z,12.10
2023-02-03T06:01:11.910Z,12.13
2023-02-03T06:03:40.330Z,11.47
2023-02-03T06:06:10.124Z,11.60
2023-02-03T06:08:38.383Z,12.13
2023-02-03T06:11:06.689Z,13.17
2023-02-03T06:13:34.994Z,12.97
2023-02-03T06:16:03.332Z,11.30
2023-02-03T06:18:31.586Z,10.67
2023-02-03T06:20:59.896Z,12.03
2023-02-03T06:23:29.516Z,10.10
2023-02-03T06:26:00.116Z,10.20
2023-02-03T06:28:28.401Z,10.73
2023-02-03T06:30:56.811Z,10.70
2023-02-03T06:33:25.385Z,10.20
2023-02-03T06:35:54.846Z,11.00
2023-02-03T06:38:23.110Z,10.73
2023-02-03T06:40:52.792Z,11.23
2023-02-03T06:43:21.067Z,11.30
2023-02-03T06:45:49.499Z,11.17
2023-02-03T06:48:17.760Z,11.47
2023-02-03T06:50:48.660Z,11.30
2023-02-03T06:53:17.141Z,11.13
2023-02-03T06:55:45.435Z,10.10
2023-02-03T06:58:15.105Z,10.33
2023-02-03T07:00:43.419Z,10.30
2023-02-03T07:03:11.667Z,8.73
2023-02-03T07:05:40.941Z,8.40
2023-02-03T07:08:09.220Z,8.87
2023-02-03T07:10:37.588Z,9.00
2023-02-03T07:13:06.201Z,7.67
2023-02-03T07:15:35.984Z,7.23
2023-02-03T07:18:04.346Z,8.83
2023-02-03T07:20:33.108Z,8.73
2023-02-03T07:23:01.344Z,8.57
2023-02-03T07:25:29.640Z,7.97
2023-02-03T07:27:57.965Z,8.20
2023-02-03T07:30:26.461Z,7.70
2023-02-03T07:32:56.342Z,9.10
2023-02-03T07:35:24.604Z,9.20
2023-02-03T07:37:52.834Z,7.90
2023-02-03T07:40:21.197Z,7.27
2023-02-03T07:42:49.884Z,7.47
2023-02-03T07:45:18.759Z,8.33
2023-02-03T07:47:47.077Z,7.73
2023-02-03T07:50:16.751Z,7.53
2023-02-03T07:52:45.014Z,7.20
2023-02-03T07:55:13.229Z,7.23
2023-02-03T07:57:43.769Z,7.97
2023-02-03T08:00:14.119Z,7.23
2023-02-03T08:02:42.626Z,7.07
2023-02-03T08:05:11.039Z,8.97
2023-02-03T08:07:40.743Z,8.10
2023-02-03T08:10:09.761Z,7.73
2023-02-03T08:12:38.088Z,8.73
2023-02-03T08:15:07.283Z,7.37
2023-02-03T08:17:35.526Z,7.77
2023-02-03T08:20:03.825Z,7.57
2023-02-03T08:22:32.231Z,7.03
2023-02-03T08:25:01.858Z,7.50
2023-02-03T08:27:30.120Z,6.37
2023-02-03T08:29:58.372Z,7.10
2023-02-03T08:32:26.661Z,6.70
2023-02-03T08:34:54.962Z,6.27
2023-02-03T08:37:24.471Z,6.23
2023-02-03T08:39:52.767Z,6.53
2023-02-03T08:42:22.395Z,6.30
2023-02-03T08:44:50.656Z,6.53
2023-02-03T08:47:18.885Z,13.17
2023-02-03T08:49:47.179Z,10.03
2023-02-03T08:52:17.946Z,9.53
2023-02-03T08:54:47.152Z,10.40
2023-02-03T08:57:15.458Z,10.93
2023-02-03T08:59:45.152Z,10.57
2023-02-03T09:02:15.884Z,11.43
2023-02-03T09:04:44.742Z,11.17
2023-02-03T09:07:13.477Z,12.73
2023-02-03T09:09:41.881Z,12.70
2023-02-03T09:12:12.349Z,12.43
2023-02-03T09:14:40.603Z,11.83
2023-02-03T09:17:10.777Z,12.33
2023-02-03T09:19:39.033Z,13.63
2023-02-03T09:22:07.307Z,11.87
2023-02-03T09:24:35.741Z,12.00
2023-02-03T09:27:04.020Z,12.53
2023-02-03T09:29:32.313Z,12.77
2023-02-03T09:32:01.185Z,13.67
2023-02-03T09:34:30.994Z,12.53
2023-02-03T09:36:59.229Z,13.27
2023-02-03T09:39:27.462Z,13.50
2023-02-03T09:42:09.330Z,14.40
2023-02-03T09:44:41.088Z,12.97
2023-02-03T09:47:12.668Z,13.60
2023-02-03T09:49:43.858Z,13.10
2023-02-03T09:52:14.537Z,13.23
2023-02-03T09:54:44.661Z,12.67
2023-02-03T09:57:16.216Z,13.23
2023-02-03T09:59:44.408Z,14.17
2023-02-03T10:02:32.196Z,12.87
2023-02-03T10:05:05.704Z,10.73
2023-02-03T10:07:36.564Z,12.17
2023-02-03T10:10:09.067Z,12.13
2023-02-03T10:12:54.832Z,13.60
2023-02-03T10:15:35.858Z,14.47
2023-02-03T10:18:05.911Z,13.37
2023-02-03T10:20:37.238Z,13.47
2023-02-03T10:23:08.347Z,15.00
2023-02-03T10:25:39.762Z,16.97
2023-02-03T10:28:12.236Z,19.27
2023-02-03T10:30:45.455Z,17.40
2023-02-03T10:33:16.363Z,18.93
2023-02-03T10:35:49.720Z,18.83
2023-02-03T10:38:23.153Z,15.63
2023-02-03T10:40:51.467Z,12.40
2023-02-03T10:43:37.409Z,12.27
2023-02-03T10:46:05.978Z,10.77
2023-02-03T10:48:34.333Z,11.87
2023-02-03T10:51:04.059Z,11.90
2023-02-03T10:53:34.591Z,11.13
2023-02-03T10:56:04.757Z,12.20
2023-02-03T10:58:34.841Z,11.23
2023-02-03T11:01:08.716Z,13.93
2023-02-03T11:03:36.997Z,11.27
2023-02-03T11:06:08.852Z,11.20
2023-02-03T11:08:37.749Z,12.30
2023-02-03T11:11:07.252Z,12.00
2023-02-03T11:13:35.496Z,15.20
2023-02-03T11:16:04.894Z,14.70
2023-02-03T11:18:48.440Z,13.70
2023-02-03T11:21:19.242Z,15.37
2023-02-03T11:23:50.200Z,18.00
2023-02-03T11:26:21.078Z,16.80
2023-02-03T11:28:50.380Z,15.83
2023-02-03T11:31:20.294Z,15.20
2023-02-03T11:33:50.266Z,16.63
2023-02-03T11:36:20.355Z,14.40
2023-02-03T11:38:48.764Z,12.33
2023-02-03T11:41:18.372Z,14.10
2023-02-03T11:43:47.022Z,16.73
2023-02-03T11:46:15.371Z,16.20
2023-02-03T11:48:49.619Z,19.07
2023-02-03T11:51:24.026Z,19.50
2023-02-03T11:54:01.635Z,16.50
2023-02-03T11:56:39.845Z,15.53
2023-02-03T11:59:22.930Z,16.57
2023-02-03T12:02:13.586Z,15.10
2023-02-03T12:05:01.180Z,18.43
2023-02-03T12:07:37.564Z,16.00
2023-02-03T12:10:09.391Z,18.37
2023-02-03T12:12:52.333Z,19.47
2023-02-03T12:15:28.474Z,16.63
2023-02-03T12:18:06.835Z,17.47
2023-02-03T12:20:56.151Z,18.23
2023-02-03T12:23:32.246Z,15.83
2023-02-03T12:26:11.135Z,18.23
2023-02-03T12:28:57.990Z,17.90
2023-02-03T12:31:29.637Z,16.90
2023-02-03T12:34:02.603Z,15.17
2023-02-03T12:36:31.911Z,14.10
2023-02-03T12:39:03.487Z,15.80
2023-02-03T12:41:33.277Z,16.20
2023-02-03T12:44:02.848Z,14.80
2023-02-03T12:46:32.520Z,13.97
2023-02-03T12:49:02.525Z,13.20
2023-02-03T12:51:34.737Z,13.97
2023-02-03T12:54:07.258Z,11.97
2023-02-03T12:56:39.993Z,12.27
2023-02-03T12:59:14.075Z,12.67
2023-02-03T13:01:44.684Z,13.17
2023-02-03T13:04:15.592Z,11.70
2023-02-03T13:06:47.236Z,11.83
2023-02-03T13:09:23.987Z,12.60
2023-02-03T13:11:54.288Z,11.47
2023-02-03T13:14:23.890Z,12.13
2023-02-03T13:16:54.384Z,12.23
2023-02-03T13:19:23.464Z,11.97
2023-02-03T13:21:52.839Z,11.70
2023-02-03T13:24:22.520Z,12.20
2023-02-03T13:27:07.117Z,10.50
2023-02-03T13:30:02.107Z,12.10
2023-02-03T13:32:44.402Z,11.90
2023-02-03T13:35:34.776Z,10.53
2023-02-03T13:38:18.311Z,11.37
2023-02-03T13:40:52.847Z,10.33
2023-02-03T13:43:37.210Z,9.10
2023-02-03T13:46:08.869Z,10.37
2023-02-03T13:48:37.829Z,9.60
2023-02-03T13:51:08.533Z,9.37
2023-02-03T13:53:37.790Z,8.83
2023-02-03T13:56:07.833Z,8.37
2023-02-03T13:58:37.170Z,9.60
2023-02-03T14:01:08.074Z,9.27
2023-02-03T14:03:43.403Z,10.33
2023-02-03T14:07:00.969Z,10.07
2023-02-03T14:09:39.976Z,10.87
2023-02-03T14:12:42.735Z,10.23
2023-02-03T14:15:30.863Z,9.27
2023-02-03T14:18:04.258Z,9.47
2023-02-03T14:20:58.238Z,8.60
2023-02-03T14:23:35.416Z,10.57
2023-02-03T14:26:03.714Z,10.30
2023-02-03T14:28:40.230Z,9.27
2023-02-03T14:31:12.803Z,8.67
2023-02-03T14:34:12.965Z,8.90
2023-02-03T14:36:59.563Z,9.73
2023-02-03T14:39:58.911Z,8.70
2023-02-03T14:43:04.856Z,8.87
2023-02-03T14:46:05.484Z,9.83
2023-02-03T14:48:43.380Z,9.53
2023-02-03T14:51:15.063Z,10.67
2023-02-03T14:53:54.781Z,10.90
2023-02-03T14:56:28.837Z,9.60
2023-02-03T14:58:58.705Z,10.43
2023-02-03T15:01:53.431Z,10.63
2023-02-03T15:04:23.318Z,9.93
2023-02-03T15:06:52.444Z,9.73
2023-02-03T15:09:24.718Z,10.00
2023-02-03T15:11:53.018Z,9.13
2023-02-03T15:14:25.842Z,10.40
2023-02-03T15:16:57.612Z,11.47
2023-02-03T15:19:28.018Z,9.63
2023-02-03T15:21:56.430Z,11.50
2023-02-03T15:24:25.983Z,11.93
2023-02-03T15:26:55.215Z,11.03
2023-02-03T15:29:27.373Z,9.57
2023-02-03T15:32:01.055Z,11.03
2023-02-03T15:34:30.712Z,11.83
2023-02-03T15:37:00.147Z,10.90
2023-02-03T15:39:38.714Z,11.30
2023-02-03T15:42:08.537Z,12.10
2023-02-03T15:44:39.557Z,12.93
2023-02-03T15:47:19.124Z,11.43
2023-02-03T15:49:47.459Z,11.70
2023-02-03T15:52:17.412Z,11.93
2023-02-03T15:54:46.724Z,11.93
2023-02-03T15:57:18.441Z,11.27
2023-02-03T15:59:50.268Z,13.97
2023-02-03T16:02:21.066Z,16.33
2023-02-03T16:04:50.284Z,14.63
2023-02-03T16:07:19.713Z,18.00
2023-02-03T16:09:48.006Z,19.20
2023-02-03T16:12:20.320Z,17.87
2023-02-03T16:14:48.556Z,13.57
2023-02-03T16:17:23.977Z,12.57
2023-02-03T16:19:52.573Z,11.80
2023-02-03T16:22:31.629Z,12.03
2023-02-03T16:25:13.469Z,10.27
2023-02-03T16:27:41.860Z,10.80
2023-02-03T16:30:41.316Z,9.03
2023-02-03T16:33:33.391Z,10.97
2023-02-03T16:36:21.349Z,10.63
2023-02-03T16:39:09.681Z,11.10
2023-02-03T16:41:55.580Z,10.23
2023-02-03T16:44:41.233Z,9.17
2023-02-03T16:47:40.039Z,8.43
2023-02-03T16:50:38.262Z,11.20
2023-02-03T16:53:07.361Z,9.50
2023-02-03T16:55:35.775Z,7.87
2023-02-03T16:58:04.092Z,8.17
2023-02-03T17:00:32.437Z,8.03
2023-02-03T17:03:00.873Z,8.63
2023-02-03T17:05:30.888Z,7.53
2023-02-03T17:07:59.309Z,7.80
2023-02-03T17:10:27.708Z,8.13
2023-02-03T17:12:55.990Z,8.77
2023-02-03T17:15:24.359Z,9.03
2023-02-03T17:17:53.018Z,9.03
2023-02-03T17:20:21.241Z,9.50
2023-02-03T17:22:53.397Z,11.07
2023-02-03T17:25:22.020Z,10.67
2023-02-03T17:27:50.333Z,11.07
2023-02-03T17:30:18.894Z,11.97
2023-02-03T17:32:47.170Z,12.90
2023-02-03T17:35:15.519Z,13.27
2023-02-03T17:37:43.804Z,12.97
2023-02-03T17:54:06.817Z,13.17
2023-02-03T17:56:36.662Z,13.73
2023-02-03T17:59:05.670Z,12.10
2023-02-03T18:01:34.011Z,12.80
2023-02-03T18:04:03.392Z,13.27
2023-02-03T18:06:33.190Z,11.57
2023-02-03T18:09:02.670Z,12.10
2023-02-03T18:11:31.341Z,11.97
2023-02-03T18:14:01.075Z,11.50
2023-02-03T18:16:32.589Z,12.20
2023-02-03T18:19:01.200Z,12.07
2023-02-03T18:21:29.543Z,11.93
2023-02-03T18:23:59.961Z,10.77
2023-02-03T18:26:29.420Z,10.00
2023-02-03T18:28:57.693Z,11.23
2023-02-03T18:31:27.678Z,10.20
2023-02-03T18:33:56.069Z,11.67
2023-02-03T18:36:24.449Z,11.30
2023-02-03T18:38:52.720Z,10.40
2023-02-03T18:41:22.172Z,11.13
2023-02-03T18:43:50.487Z,11.33
2023-02-03T18:46:19.707Z,11.80
2023-02-03T18:48:49.485Z,11.70
2023-02-03T18:51:19.045Z,12.30
2023-02-03T18:53:49.138Z,12.13
2023-02-03T18:56:18.488Z,12.37
2023-02-03T18:58:46.941Z,12.67
2023-02-03T19:01:23.098Z,14.33
2023-02-03T19:03:52.891Z,13.30
2023-02-03T19:06:21.394Z,11.43
2023-02-03T19:08:50.341Z,11.43
2023-02-03T19:11:18.852Z,10.80
2023-02-03T19:13:47.279Z,10.20
2023-02-03T19:16:16.995Z,10.00
2023-02-03T19:18:45.426Z,8.37
2023-02-03T19:21:15.345Z,8.10
2023-02-03T19:23:43.751Z,9.07
2023-02-03T19:26:12.249Z,11.10
2023-02-03T19:28:40.726Z,13.47
2023-02-03T19:31:10.169Z,12.33
2023-02-03T19:33:38.733Z,12.27
2023-02-03T19:36:07.879Z,10.43
2023-02-03T19:38:37.645Z,9.53
2023-02-03T19:41:07.503Z,9.60
2023-02-03T19:43:35.901Z,9.93
2023-02-03T19:46:04.422Z,11.33
2023-02-03T19:48:32.833Z,12.00
2023-02-03T19:51:01.144Z,11.30
2023-02-03T19:53:29.530Z,11.40
2023-02-03T19:55:59.259Z,9.30
2023-02-03T19:58:27.589Z,10.30
2023-02-03T20:00:56.001Z,10.30
2023-02-03T20:03:24.482Z,12.23
2023-02-03T20:05:53.592Z,11.50
2023-02-03T20:08:22.101Z,13.40
2023-02-03T20:10:51.516Z,12.47
2023-02-03T20:13:21.280Z,11.97
2023-02-03T20:15:49.658Z,11.77
2023-02-03T20:18:17.911Z,12.20
2023-02-03T20:20:50.542Z,11.73
2023-02-03T20:23:18.923Z,11.07
2023-02-03T20:25:49.526Z,11.97
2023-02-03T20:28:18.320Z,12.27
2023-02-03T20:30:48.088Z,13.73
2023-02-03T20:33:16.425Z,11.93
2023-02-03T20:35:44.840Z,11.63
2023-02-03T20:38:15.621Z,12.40
2023-02-03T20:40:44.008Z,9.50
2023-02-03T20:43:16.476Z,9.47
2023-02-03T20:45:44.802Z,10.57
2023-02-03T20:48:15.027Z,9.30
2023-02-03T20:50:47.265Z,9.67
2023-02-03T20:53:20.135Z,10.73
2023-02-03T20:55:48.538Z,9.00
2023-02-03T20:58:19.352Z,9.77
2023-02-03T21:00:48.515Z,8.53
2023-02-03T21:03:36.383Z,9.87
2023-02-03T21:06:05.737Z,10.83
2023-02-03T21:08:34.068Z,9.90
2023-02-03T21:11:02.419Z,8.97
2023-02-03T21:13:31.337Z,9.33
2023-02-03T21:16:02.730Z,9.93
2023-02-03T21:18:35.393Z,9.10
2023-02-03T21:21:03.952Z,9.67
2023-02-03T21:23:37.114Z,10.20
2023-02-03T21:26:16.181Z,10.53
2023-02-03T21:28:44.491Z,9.90
2023-02-03T21:31:24.816Z,9.77
2023-02-03T21:33:54.863Z,11.00
2023-02-03T21:36:24.137Z,13.13
2023-02-03T21:38:53.604Z,14.43
2023-02-03T21:41:22.767Z,15.30
2023-02-03T21:43:52.243Z,17.10
2023-02-03T21:46:21.410Z,11.43
2023-02-03T21:48:51.258Z,13.43
2023-02-03T21:51:23.118Z,13.03
2023-02-03T21:53:56.445Z,11.63
2023-02-03T21:56:25.942Z,8.63
2023-02-03T21:58:57.365Z,10.53
2023-02-03T22:01:26.295Z,10.80
2023-02-03T22:03:55.199Z,11.00
2023-02-03T22:06:29.055Z,11.70
2023-02-03T22:08:58.447Z,13.50
2023-02-03T22:11:27.465Z,11.30
2023-02-03T22:13:55.805Z,12.37
2023-02-03T22:16:24.235Z,10.90
2023-02-03T22:18:52.683Z,12.40
2023-02-03T22:21:21.002Z,13.13
2023-02-03T22:23:50.644Z,12.93
2023-02-03T22:26:19.108Z,10.87
2023-02-03T22:28:47.366Z,9.50
2023-02-03T22:31:15.757Z,10.80
2023-02-03T22:33:44.187Z,10.83
2023-02-03T22:36:12.620Z,11.90
2023-02-03T22:38:40.994Z,10.33
2023-02-03T22:41:11.965Z,10.13
2023-02-03T22:43:40.349Z,7.53
2023-02-03T22:46:08.764Z,7.27
2023-02-03T22:48:37.067Z,7.83
2023-02-03T22:51:05.551Z,8.47
2023-02-03T22:53:34.947Z,7.97
2023-02-03T22:56:03.479Z,7.73
2023-02-03T22:58:33.140Z,7.83
2023-02-03T23:01:01.431Z,8.90
2023-02-03T23:03:32.814Z,8.07
2023-02-03T23:06:01.273Z,8.77
2023-02-03T23:08:29.530Z,8.63
2023-02-03T23:10:57.835Z,9.47
2023-02-03T23:13:26.126Z,9.10
2023-02-03T23:15:55.945Z,8.60
2023-02-03T23:18:24.313Z,7.97
2023-02-03T23:20:52.615Z,6.50
2023-02-03T23:23:20.896Z,7.00
2023-02-03T23:25:49.194Z,6.37
2023-02-03T23:28:17.514Z,8.40
2023-02-03T23:30:46.019Z,9.17
2023-02-03T23:33:15.739Z,8.73
2023-02-03T23:35:45.915Z,8.87
2023-02-03T23:38:14.418Z,8.73
2023-02-03T23:40:42.730Z,8.23
2023-02-03T23:43:10.981Z,7.63
2023-02-03T23:45:39.303Z,7.13
2023-02-03T23:48:07.685Z,6.70
2023-02-03T23:50:37.442Z,6.93
2023-02-03T23:53:05.739Z,7.60
2023-02-03T23:55:34.024Z,7.63
2023-02-03T23:58:02.283Z,6.43
